Time;durP1;ratioP1;P1;durP2;ratioP2;P2;SDS_P1;SDS_P2;PMS_P1;PMS_P2;Temp;Humidity;BMP_temperature;BMP_pressure;BME280_temperature;BME280_humidity;BME280_pressure;Samples;Min_cycle;Max_cycle;Signal;HPM_P1;HPM_P2
2019/09/10 00:00:44;;;;;;;6.1;3.1;;;;;;;;;;;;;
2019/09/10 00:03:08;;;;;;;3.7;2.8;;;;;;;;;;;;;
2019/09/10 00:05:28;;;;;;;4.7;3;;;;;;;;;;;;;
2019/09/10 00:07:54;;;;;;;4.7;3.3;;;;;;;;;;;;;
2019/09/10 00:10:22;;;;;;;4.5;2.8;;;;;;;;;;;;;
2019/09/10 00:12:46;;;;;;;3.4;2.7;;;;;;;;;;;;;
2019/09/10 00:15:12;;;;;;;3.9;2.9;;;;;;;;;;;;;
2019/09/10 00:17:42;;;;;;;3.8;2.8;;;;;;;;;;;;;
2019/09/10 00:20:03;;;;;;;3.5;2.6;;;;;;;;;;;;;
2019/09/10 00:22:31;;;;;;;3.6;2.5;;;;;;;;;;;;;
2019/09/10 00:24:59;;;;;;;3.7;2.1;;;;;;;;;;;;;
2019/09/10 00:27:26;;;;;;;4.4;2.4;;;;;;;;;;;;;
2019/09/10 00:29:45;;;;;;;4.3;2.5;;;;;;;;;;;;;
2019/09/10 00:32:12;;;;;;;5.2;2.7;;;;;;;;;;;;;
2019/09/10 00:34:36;;;;;;;3.6;2.4;;;;;;;;;;;;;
2019/09/10 00:37:02;;;;;;;3.6;2.4;;;;;;;;;;;;;
2019/09/10 00:39:28;;;;;;;5.9;2.7;;;;;;;;;;;;;
2019/09/10 00:41:58;;;;;;;4.9;3.1;;;;;;;;;;;;;
2019/09/10 00:44:23;;;;;;;5.5;3.2;;;;;;;;;;;;;
2019/09/10 00:46:48;;;;;;;4.8;3.4;;;;;;;;;;;;;
2019/09/10 00:49:15;;;;;;;6.1;3.1;;;;;;;;;;;;;
2019/09/10 00:51:39;;;;;;;4.5;2.9;;;;;;;;;;;;;
2019/09/10 00:54:05;;;;;;;4.2;2.8;;;;;;;;;;;;;
2019/09/10 00:56:34;;;;;;;4.5;2.7;;;;;;;;;;;;;
2019/09/10 00:58:59;;;;;;;3.9;3;;;;;;;;;;;;;
2019/09/10 01:01:22;;;;;;;3.9;2.7;;;;;;;;;;;;;
2019/09/10 01:03:47;;;;;;;5.6;2.8;;;;;;;;;;;;;
2019/09/10 01:06:14;;;;;;;3.4;2.8;;;;;;;;;;;;;
2019/09/10 01:08:39;;;;;;;3.1;2.4;;;;;;;;;;;;;
2019/09/10 01:11:06;;;;;;;5;2.3;;;;;;;;;;;;;
2019/09/10 01:13:35;;;;;;;3.2;2.4;;;;;;;;;;;;;
2019/09/10 01:15:56;;;;;;;2.4;2;;;;;;;;;;;;;
2019/09/10 01:18:20;;;;;;;5.1;2.3;;;;;;;;;;;;;
2019/09/10 01:20:46;;;;;;;4.4;2.1;;;;;;;;;;;;;
2019/09/10 01:23:13;;;;;;;3;2;;;;;;;;;;;;;
2019/09/10 01:25:36;;;;;;;3.2;2;;;;;;;;;;;;;
2019/09/10 01:28:01;;;;;;;4.5;1.8;;;;;;;;;;;;;
2019/09/10 01:30:31;;;;;;;2.7;2.2;;;;;;;;;;;;;
2019/09/10 01:32:54;;;;;;;2.9;2.2;;;;;;;;;;;;;
2019/09/10 01:35:18;;;;;;;2.5;2.2;;;;;;;;;;;;;
2019/09/10 01:37:44;;;;;;;4.5;2.3;;;;;;;;;;;;;
2019/09/10 01:40:12;;;;;;;5.3;2.6;;;;;;;;;;;;;
2019/09/10 01:42:38;;;;;;;4.4;2.2;;;;;;;;;;;;;
2019/09/10 01:45:38;;;;;;;4.1;2.6;;;;;;;;;;;;;
2019/09/10 01:48:03;;;;;;;4.2;2.4;;;;;;;;;;;;;
2019/09/10 01:50:27;;;;;;;3.9;2.8;;;;;;;;;;;;;
2019/09/10 01:52:50;;;;;;;4.4;2.7;;;;;;;;;;;;;
2019/09/10 01:55:19;;;;;;;3;2.3;;;;;;;;;;;;;
2019/09/10 01:57:46;;;;;;;3.2;2.5;;;;;;;;;;;;;
2019/09/10 02:01:33;;;;;;;4.3;2.7;;;;;;;;;;;;;
2019/09/10 02:02:50;;;;;;;4.2;2.6;;;;;;;;;;;;;
2019/09/10 02:05:20;;;;;;;4.7;2.6;;;;;;;;;;;;;
2019/09/10 02:07:48;;;;;;;4.6;2.5;;;;;;;;;;;;;
2019/09/10 02:12:34;;;;;;;4.2;2.6;;;;;;;;;;;;;
2019/09/10 02:14:58;;;;;;;4.5;2.6;;;;;;;;;;;;;
2019/09/10 02:17:24;;;;;;;4.5;2.9;;;;;;;;;;;;;
2019/09/10 02:19:52;;;;;;;3.6;2.9;;;;;;;;;;;;;
2019/09/10 02:22:17;;;;;;;5.5;2.9;;;;;;;;;;;;;
2019/09/10 02:24:40;;;;;;;5.7;2.7;;;;;;;;;;;;;
2019/09/10 02:27:06;;;;;;;6.3;3;;;;;;;;;;;;;
2019/09/10 02:29:35;;;;;;;6.1;2.9;;;;;;;;;;;;;
2019/09/10 02:31:57;;;;;;;5.2;3.6;;;;;;;;;;;;;
2019/09/10 02:34:22;;;;;;;8.7;3.4;;;;;;;;;;;;;
2019/09/10 02:36:47;;;;;;;5.1;3.1;;;;;;;;;;;;;
2019/09/10 02:39:16;;;;;;;6.8;3;;;;;;;;;;;;;
2019/09/10 02:41:39;;;;;;;3.5;2.4;;;;;;;;;;;;;
2019/09/10 02:44:05;;;;;;;3.3;2.8;;;;;;;;;;;;;
2019/09/10 02:46:30;;;;;;;5.2;3;;;;;;;;;;;;;
2019/09/10 02:48:58;;;;;;;5.1;2.5;;;;;;;;;;;;;
2019/09/10 02:51:23;;;;;;;4.1;2.5;;;;;;;;;;;;;
2019/09/10 02:53:47;;;;;;;3.6;2.4;;;;;;;;;;;;;
2019/09/10 02:56:18;;;;;;;4;3.1;;;;;;;;;;;;;
2019/09/10 02:58:40;;;;;;;5.6;3.5;;;;;;;;;;;;;
2019/09/10 03:01:05;;;;;;;6.3;3.2;;;;;;;;;;;;;
2019/09/10 03:03:34;;;;;;;4.2;3.2;;;;;;;;;;;;;
2019/09/10 03:05:59;;;;;;;6.1;3.2;;;;;;;;;;;;;
2019/09/10 03:08:30;;;;;;;5.5;3.3;;;;;;;;;;;;;
2019/09/10 03:10:53;;;;;;;6.2;3.5;;;;;;;;;;;;;
2019/09/10 03:13:15;;;;;;;6.4;3.7;;;;;;;;;;;;;
2019/09/10 03:15:39;;;;;;;7.2;3.8;;;;;;;;;;;;;
2019/09/10 03:18:05;;;;;;;4.7;3.7;;;;;;;;;;;;;
2019/09/10 03:20:37;;;;;;;4.8;3.4;;;;;;;;;;;;;
2019/09/10 03:23:06;;;;;;;4.2;3.2;;;;;;;;;;;;;
2019/09/10 03:25:27;;;;;;;5.2;3.4;;;;;;;;;;;;;
2019/09/10 03:27:59;;;;;;;7.5;3.5;;;;;;;;;;;;;
2019/09/10 03:30:26;;;;;;;6.3;3.4;;;;;;;;;;;;;
2019/09/10 03:32:52;;;;;;;5.2;3.3;;;;;;;;;;;;;
2019/09/10 03:35:41;;;;;;;6;3;;;;;;;;;;;;;
2019/09/10 03:37:57;;;;;;;4.7;2.9;;;;;;;;;;;;;
2019/09/10 03:40:18;;;;;;;6.1;3.2;;;;;;;;;;;;;
2019/09/10 03:42:47;;;;;;;3.7;2.8;;;;;;;;;;;;;
2019/09/10 03:45:11;;;;;;;4.3;2.8;;;;;;;;;;;;;
2019/09/10 03:47:34;;;;;;;4.3;2.5;;;;;;;;;;;;;
2019/09/10 03:50:05;;;;;;;5.6;3;;;;;;;;;;;;;
2019/09/10 03:52:27;;;;;;;5;3;;;;;;;;;;;;;
2019/09/10 03:54:53;;;;;;;6.9;4.3;;;;;;;;;;;;;
2019/09/10 03:57:19;;;;;;;6.7;4.2;;;;;;;;;;;;;
2019/09/10 03:59:46;;;;;;;6.9;3.8;;;;;;;;;;;;;
2019/09/10 04:02:35;;;;;;;8.3;4.1;;;;;;;8.63;86.83496;937.1937;;;;
2019/09/10 04:05:03;;;;;;;7.5;4.3;;;;;;;8.72;86.70508;937.1823;;;;
2019/09/10 04:07:34;;;;;;;6.1;3.4;;;;;;;8.83;86.61523;937.2048;;;;
2019/09/10 04:10:09;;;;;;;4.5;3.2;;;;;;;8.94;86.00879;937.2008;;;;
2019/09/10 04:12:33;;;;;;;4.7;2.9;;;;;;;9.08;85.18457;937.2498;;;;
2019/09/10 04:15:07;;;;;;;4.9;2.9;;;;;;;9.15;85.13086;937.2086;;;;
2019/09/10 04:17:33;;;;;;;7.3;2.5;;;;;;;9.07;84.87695;937.2942;;;;
2019/09/10 04:20:05;;;;;;;5.9;2.8;;;;;;;9.01;85.14746;937.3823;;;;
2019/09/10 04:22:34;;;;;;;4.8;2.5;;;;;;;8.92;85.4707;937.353;;;;
2019/09/10 04:24:56;;;;;;;4;2.2;;;;;;;8.78;85.5918;937.3253;;;;
2019/09/10 04:27:22;;;;;;;4.8;2.6;;;;;;;8.72;86.25;937.4347;;;;
2019/09/10 04:29:53;;;;;;;5.3;2.4;;;;;;;8.89;85.48828;937.4597;;;;
2019/09/10 04:32:26;;;;;;;3.7;2.2;;;;;;;8.99;85.56641;937.4731;;;;
2019/09/10 04:34:51;;;;;;;3.2;2.2;;;;;;;9.04;85.47363;937.455;;;;
2019/09/10 04:37:19;;;;;;;5.1;2.4;;;;;;;9.1;84.97168;937.4963;;;;
2019/09/10 04:39:44;;;;;;;6.6;2.4;;;;;;;9.16;84.58594;937.5289;;;;
2019/09/10 04:42:19;;;;;;;3.6;2.3;;;;;;;9.13;84.5918;937.5642;;;;
2019/09/10 04:44:50;;;;;;;5.5;2.3;;;;;;;9.12;84.79492;937.58;;;;
2019/09/10 04:47:20;;;;;;;4.6;2.4;;;;;;;9.13;84.7168;937.5427;;;;
2019/09/10 04:49:46;;;;;;;3.7;2.3;;;;;;;9.18;84.69238;937.5966;;;;
2019/09/10 04:52:18;;;;;;;5.7;2.2;;;;;;;9.14;85.34277;937.6128;;;;
2019/09/10 04:54:43;;;;;;;4.8;1.8;;;;;;;9.05;85.40625;937.6696;;;;
2019/09/10 04:57:12;;;;;;;3.4;1.8;;;;;;;9.17;84.33691;937.7283;;;;
2019/09/10 04:59:40;;;;;;;6.8;2.2;;;;;;;9.35;84.05176;937.6627;;;;
2019/09/10 05:02:08;;;;;;;8.4;6.4;;;;;;;;;;;;;
2019/09/10 05:06:56;;;;;;;6.7;2.3;;;;;;;;;;;;;
2019/09/10 05:09:20;;;;;;;4.4;1.9;;;;;;;;;;;;;
2019/09/10 05:11:47;;;;;;;3;2;;;;;;;;;;;;;
2019/09/10 05:14:13;;;;;;;4.1;1.8;;;;;;;;;;;;;
2019/09/10 05:16:42;;;;;;;3.3;2.2;;;;;;;;;;;;;
2019/09/10 05:19:04;;;;;;;5.6;3.8;;;;;;;;;;;;;
2019/09/10 05:21:31;;;;;;;7.2;2.5;;;;;;;;;;;;;
2019/09/10 05:24:13;;;;;;;2.6;1.6;;;;;;;;;;;;;
2019/09/10 05:29:02;;;;;;;7.8;3.2;;;;;;;;;;;;;
2019/09/10 05:31:30;;;;;;;7.7;2.5;;;;;;;;;;;;;
2019/09/10 05:33:56;;;;;;;4.8;2.1;;;;;;;;;;;;;
2019/09/10 05:36:24;;;;;;;3.6;1.8;;;;;;;;;;;;;
2019/09/10 05:38:48;;;;;;;5.5;1.9;;;;;;;;;;;;;
2019/09/10 05:41:11;;;;;;;4.6;2.2;;;;;;;;;;;;;
2019/09/10 05:43:38;;;;;;;2.7;2.1;;;;;;;;;;;;;
2019/09/10 05:46:05;;;;;;;3.7;2.3;;;;;;;;;;;;;
2019/09/10 05:48:29;;;;;;;5.3;2.5;;;;;;;;;;;;;
2019/09/10 05:51:17;;;;;;;6.2;2.3;;;;;;;;;;;;;
2019/09/10 05:53:35;;;;;;;6.7;2.6;;;;;;;;;;;;;
2019/09/10 05:56:00;;;;;;;6.7;2.7;;;;;;;;;;;;;
2019/09/10 05:58:26;;;;;;;5.8;2.3;;;;;;;;;;;;;
2019/09/10 06:00:53;;;;;;;5.7;2.1;;;;;;;;;;;;;
2019/09/10 06:03:17;;;;;;;5;1.9;;;;;;;;;;;;;
2019/09/10 06:05:41;;;;;;;2.7;2;;;;;;;;;;;;;
2019/09/10 06:08:06;;;;;;;3.4;1.8;;;;;;;;;;;;;
2019/09/10 06:10:37;;;;;;;4.3;1.4;;;;;;;;;;;;;
2019/09/10 06:12:58;;;;;;;3.1;1.5;;;;;;;;;;;;;
2019/09/10 06:15:21;;;;;;;3.2;1.3;;;;;;;;;;;;;
2019/09/10 06:17:47;;;;;;;3.5;1.4;;;;;;;;;;;;;
2019/09/10 06:20:15;;;;;;;3.6;1.6;;;;;;;;;;;;;
2019/09/10 06:22:38;;;;;;;2.6;1.4;;;;;;;;;;;;;
2019/09/10 06:25:03;;;;;;;3.8;1.9;;;;;;;;;;;;;
2019/09/10 06:27:28;;;;;;;5.4;1.6;;;;;;;;;;;;;
2019/09/10 06:29:55;;;;;;;3.8;1.7;;;;;;;;;;;;;
2019/09/10 06:32:20;;;;;;;2.3;1.6;;;;;;;;;;;;;
2019/09/10 06:34:44;;;;;;;4.9;1.5;;;;;;;;;;;;;
2019/09/10 06:37:12;;;;;;;3.8;1.4;;;;;;;;;;;;;
2019/09/10 06:39:39;;;;;;;3.1;1.3;;;;;;;;;;;;;
2019/09/10 06:42:10;;;;;;;3.3;1.5;;;;;;;;;;;;;
2019/09/10 06:44:37;;;;;;;4.9;1.3;;;;;;;;;;;;;
2019/09/10 06:47:04;;;;;;;3.7;1.4;;;;;;;;;;;;;
2019/09/10 06:49:30;;;;;;;2.3;1.3;;;;;;;;;;;;;
2019/09/10 06:52:12;;;;;;;4;1.5;;;;;;;;;;;;;
2019/09/10 06:54:37;;;;;;;6.5;1.5;;;;;;;;;;;;;
2019/09/10 06:57:05;;;;;;;2.6;1.3;;;;;;;;;;;;;
2019/09/10 06:59:29;;;;;;;2.4;1.4;;;;;;;;;;;;;
2019/09/10 07:01:55;;;;;;;2.9;1.2;;;;;;;;;;;;;
2019/09/10 07:04:23;;;;;;;3.7;1.3;;;;;;;;;;;;;
2019/09/10 07:06:48;;;;;;;5.8;1.1;;;;;;;;;;;;;
2019/09/10 07:09:13;;;;;;;1.8;1.1;;;;;;;;;;;;;
2019/09/10 07:11:40;;;;;;;5;1.1;;;;;;;;;;;;;
2019/09/10 07:14:05;;;;;;;3.5;1.2;;;;;;;;;;;;;
2019/09/10 07:16:28;;;;;;;2.8;0.9;;;;;;;;;;;;;
2019/09/10 07:18:53;;;;;;;2.5;0.9;;;;;;;;;;;;;
2019/09/10 07:21:25;;;;;;;8.1;1.1;;;;;;;;;;;;;
2019/09/10 07:23:48;;;;;;;1.9;1.1;;;;;;;;;;;;;
2019/09/10 07:26:08;;;;;;;2.1;0.9;;;;;;;;;;;;;
2019/09/10 07:28:35;;;;;;;2.4;1.1;;;;;;;;;;;;;
2019/09/10 07:31:07;;;;;;;2.6;1.1;;;;;;;;;;;;;
2019/09/10 07:33:29;;;;;;;2.1;1.4;;;;;;;;;;;;;
2019/09/10 07:35:58;;;;;;;2;1.3;;;;;;;;;;;;;
2019/09/10 07:38:21;;;;;;;3.8;1;;;;;;;;;;;;;
2019/09/10 07:40:47;;;;;;;6.4;1.2;;;;;;;;;;;;;
2019/09/10 07:43:11;;;;;;;4.3;1.3;;;;;;;;;;;;;
2019/09/10 07:45:35;;;;;;;2.4;1;;;;;;;;;;;;;
2019/09/10 07:48:01;;;;;;;2.5;1.1;;;;;;;;;;;;;
2019/09/10 07:50:26;;;;;;;4.6;1.1;;;;;;;;;;;;;
2019/09/10 07:52:52;;;;;;;3.8;0.9;;;;;;;;;;;;;
2019/09/10 07:55:16;;;;;;;2.6;0.9;;;;;;;;;;;;;
2019/09/10 07:57:45;;;;;;;2.3;1;;;;;;;;;;;;;
2019/09/10 08:00:08;;;;;;;3.4;0.9;;;;;;;;;;;;;
2019/09/10 08:02:32;;;;;;;6.8;1.1;;;;;;;;;;;;;
2019/09/10 08:05:00;;;;;;;1.9;0.9;;;;;;;;;;;;;
2019/09/10 08:07:26;;;;;;;1.5;0.8;;;;;;;;;;;;;
2019/09/10 08:09:51;;;;;;;3.2;0.9;;;;;;;;;;;;;
2019/09/10 08:12:19;;;;;;;2.2;0.8;;;;;;;;;;;;;
2019/09/10 08:14:43;;;;;;;1.4;0.9;;;;;;;;;;;;;
2019/09/10 08:17:08;;;;;;;2.9;0.9;;;;;;;;;;;;;
2019/09/10 08:19:34;;;;;;;2.7;0.8;;;;;;;;;;;;;
2019/09/10 08:22:01;;;;;;;3.4;0.8;;;;;;;;;;;;;
2019/09/10 08:24:26;;;;;;;1.2;0.8;;;;;;;;;;;;;
2019/09/10 08:26:50;;;;;;;1.4;0.8;;;;;;;;;;;;;
2019/09/10 08:29:20;;;;;;;3.2;0.8;;;;;;;;;;;;;
2019/09/10 08:31:45;;;;;;;3.3;0.9;;;;;;;;;;;;;
2019/09/10 08:34:14;;;;;;;2.6;0.8;;;;;;;;;;;;;
2019/09/10 08:36:39;;;;;;;2;0.8;;;;;;;;;;;;;
2019/09/10 08:39:03;;;;;;;1.9;0.8;;;;;;;;;;;;;
2019/09/10 08:41:26;;;;;;;2.4;0.8;;;;;;;;;;;;;
2019/09/10 08:43:54;;;;;;;4.4;0.7;;;;;;;;;;;;;
2019/09/10 08:46:17;;;;;;;1.3;0.5;;;;;;;;;;;;;
2019/09/10 08:48:41;;;;;;;3.6;0.7;;;;;;;;;;;;;
2019/09/10 08:51:07;;;;;;;3.4;0.8;;;;;;;;;;;;;
2019/09/10 08:53:36;;;;;;;1.7;0.7;;;;;;;;;;;;;
2019/09/10 08:55:59;;;;;;;2.5;0.8;;;;;;;;;;;;;
2019/09/10 08:58:23;;;;;;;2.3;0.7;;;;;;;;;;;;;
2019/09/10 09:00:48;;;;;;;2.6;0.6;;;;;;;;;;;;;
2019/09/10 09:03:17;;;;;;;2.2;0.6;;;;;;;;;;;;;
2019/09/10 09:05:38;;;;;;;3.1;1;;;;;;;;;;;;;
2019/09/10 09:08:05;;;;;;;1.4;0.7;;;;;;;;;;;;;
2019/09/10 09:10:31;;;;;;;5.6;1.1;;;;;;;;;;;;;
2019/09/10 09:12:54;;;;;;;3.9;0.9;;;;;;;;;;;;;
2019/09/10 09:15:21;;;;;;;5.3;1.1;;;;;;;;;;;;;
2019/09/10 09:17:44;;;;;;;6.6;1.1;;;;;;;;;;;;;
2019/09/10 09:20:10;;;;;;;5.6;1.1;;;;;;;;;;;;;
2019/09/10 09:22:38;;;;;;;5.7;0.9;;;;;;;;;;;;;
2019/09/10 09:25:03;;;;;;;3.7;0.9;;;;;;;;;;;;;
2019/09/10 09:27:26;;;;;;;3.3;0.8;;;;;;;;;;;;;
2019/09/10 09:30:00;;;;;;;2;0.8;;;;;;;;;;;;;
2019/09/10 09:32:17;;;;;;;1;0.8;;;;;;;;;;;;;
2019/09/10 09:34:47;;;;;;;2.8;0.9;;;;;;;;;;;;;
2019/09/10 09:37:10;;;;;;;3.2;0.8;;;;;;;;;;;;;
2019/09/10 09:39:32;;;;;;;4.3;0.9;;;;;;;;;;;;;
2019/09/10 09:42:13;;;;;;;1.8;0.8;;;;;;;;;;;;;
2019/09/10 09:44:39;;;;;;;2.5;0.9;;;;;;;;;;;;;
2019/09/10 09:47:04;;;;;;;1.6;0.7;;;;;;;;;;;;;
2019/09/10 09:49:32;;;;;;;2;0.6;;;;;;;;;;;;;
2019/09/10 09:51:57;;;;;;;3.4;0.7;;;;;;;;;;;;;
2019/09/10 09:54:28;;;;;;;2.6;0.7;;;;;;;;;;;;;
2019/09/10 09:56:52;;;;;;;1.7;0.6;;;;;;;;;;;;;
2019/09/10 09:59:17;;;;;;;1;0.7;;;;;;;;;;;;;
2019/09/10 10:01:44;;;;;;;1.8;0.8;;;;;;;;;;;;;
2019/09/10 10:04:13;;;;;;;2;0.8;;;;;;;;;;;;;
2019/09/10 10:06:39;;;;;;;1.2;0.7;;;;;;;;;;;;;
2019/09/10 10:09:08;;;;;;;2.2;0.7;;;;;;;;;;;;;
2019/09/10 10:11:29;;;;;;;2.6;0.9;;;;;;;;;;;;;
2019/09/10 10:13:56;;;;;;;4;0.9;;;;;;;;;;;;;
2019/09/10 10:16:20;;;;;;;1.5;1;;;;;;;;;;;;;
2019/09/10 10:18:45;;;;;;;3.2;0.8;;;;;;;;;;;;;
2019/09/10 10:21:10;;;;;;;2.1;0.8;;;;;;;;;;;;;
2019/09/10 10:23:34;;;;;;;1.5;0.8;;;;;;;;;;;;;
2019/09/10 10:26:02;;;;;;;1.6;0.7;;;;;;;;;;;;;
2019/09/10 10:28:26;;;;;;;2.3;0.8;;;;;;;;;;;;;
2019/09/10 10:30:56;;;;;;;2.1;0.7;;;;;;;;;;;;;
2019/09/10 10:33:18;;;;;;;1.9;0.6;;;;;;;;;;;;;
2019/09/10 10:35:43;;;;;;;2.3;0.8;;;;;;;;;;;;;
2019/09/10 10:38:11;;;;;;;1.4;0.8;;;;;;;;;;;;;
2019/09/10 10:40:34;;;;;;;2.6;0.6;;;;;;;;;;;;;
2019/09/10 10:43:12;;;;;;;1.5;0.8;;;;;;;;;;;;;
2019/09/10 10:45:25;;;;;;;2;0.7;;;;;;;;;;;;;
2019/09/10 10:47:57;;;;;;;1;0.8;;;;;;;;;;;;;
2019/09/10 10:50:22;;;;;;;1.3;0.7;;;;;;;;;;;;;
2019/09/10 10:52:47;;;;;;;1.3;0.8;;;;;;;;;;;;;
2019/09/10 10:55:11;;;;;;;2.3;0.8;;;;;;;;;;;;;
2019/09/10 10:57:40;;;;;;;5.1;1.1;;;;;;;;;;;;;
2019/09/10 11:00:11;;;;;;;3.2;1;;;;;;;;;;;;;
2019/09/10 11:02:32;;;;;;;1.7;1;;;;;;;;;;;;;
2019/09/10 11:05:14;;;;;;;1.7;0.8;;;;;;;;;;;;;
2019/09/10 11:07:22;;;;;;;1.9;0.8;;;;;;;;;;;;;
2019/09/10 11:09:50;;;;;;;1.1;0.7;;;;;;;;;;;;;
2019/09/10 11:12:17;;;;;;;1.1;0.7;;;;;;;;;;;;;
2019/09/10 11:14:45;;;;;;;1.3;0.8;;;;;;;;;;;;;
2019/09/10 11:17:12;;;;;;;1.2;0.9;;;;;;;;;;;;;
2019/09/10 11:19:43;;;;;;;1.8;0.8;;;;;;;;;;;;;
2019/09/10 11:22:08;;;;;;;2.6;0.6;;;;;;;;;;;;;
2019/09/10 11:24:31;;;;;;;0.7;0.7;;;;;;;;;;;;;
2019/09/10 11:27:13;;;;;;;0.9;0.7;;;;;;;;;;;;;
2019/09/10 11:29:40;;;;;;;1.2;0.8;;;;;;;;;;;;;
2019/09/10 11:32:09;;;;;;;1.6;0.6;;;;;;;;;;;;;
2019/09/10 11:34:30;;;;;;;0.9;0.7;;;;;;;;;;;;;
2019/09/10 11:37:01;;;;;;;2.7;0.8;;;;;;;;;;;;;
2019/09/10 11:39:22;;;;;;;3.5;0.7;;;;;;;;;;;;;
2019/09/10 11:42:16;;;;;;;3.4;0.8;;;;;;;;;;;;;
2019/09/10 11:44:41;;;;;;;3.1;0.7;;;;;;;;;;;;;
2019/09/10 11:47:04;;;;;;;1.2;0.7;;;;;;;;;;;;;
2019/09/10 11:49:35;;;;;;;1.7;0.7;;;;;;;;;;;;;
2019/09/10 11:51:59;;;;;;;1.1;0.6;;;;;;;;;;;;;
2019/09/10 11:54:25;;;;;;;3.8;0.8;;;;;;;;;;;;;
2019/09/10 11:59:17;;;;;;;2.1;0.8;;;;;;;;;;;;;
2019/09/10 12:01:43;;;;;;;3.2;0.8;;;;;;;;;;;;;
2019/09/10 12:04:09;;;;;;;1.4;0.9;;;;;;;;;;;;;
2019/09/10 12:06:35;;;;;;;1.5;0.7;;;;;;;;;;;;;
2019/09/10 12:09:02;;;;;;;1.7;0.7;;;;;;;;;;;;;
2019/09/10 12:11:23;;;;;;;1.5;0.7;;;;;;;;;;;;;
2019/09/10 12:13:51;;;;;;;1.2;0.7;;;;;;;;;;;;;
2019/09/10 12:16:16;;;;;;;2.3;0.8;;;;;;;;;;;;;
2019/09/10 12:18:40;;;;;;;1.1;0.7;;;;;;;;;;;;;
2019/09/10 12:21:04;;;;;;;3.1;0.7;;;;;;;;;;;;;
2019/09/10 12:23:39;;;;;;;3;0.8;;;;;;;;;;;;;
2019/09/10 12:28:34;;;;;;;2.6;0.7;;;;;;;;;;;;;
2019/09/10 12:31:01;;;;;;;1.9;0.7;;;;;;;;;;;;;
2019/09/10 12:33:26;;;;;;;1.7;0.5;;;;;;;;;;;;;
2019/09/10 12:35:49;;;;;;;1.9;0.6;;;;;;;;;;;;;
2019/09/10 12:38:15;;;;;;;1.4;0.7;;;;;;;;;;;;;
2019/09/10 12:40:43;;;;;;;1.1;0.7;;;;;;;;;;;;;
2019/09/10 12:43:05;;;;;;;2.5;0.6;;;;;;;;;;;;;
2019/09/10 12:45:32;;;;;;;1.1;0.7;;;;;;;;;;;;;
2019/09/10 12:47:56;;;;;;;1.1;0.7;;;;;;;;;;;;;
2019/09/10 12:50:25;;;;;;;1.7;0.6;;;;;;;;;;;;;
2019/09/10 12:52:50;;;;;;;1.7;0.7;;;;;;;;;;;;;
2019/09/10 12:55:21;;;;;;;2.6;0.8;;;;;;;;;;;;;
2019/09/10 12:57:47;;;;;;;1.2;0.7;;;;;;;;;;;;;
2019/09/10 13:00:17;;;;;;;1.7;0.6;;;;;;;;;;;;;
2019/09/10 13:05:21;;;;;;;1;0.7;;;;;;;;;;;;;
2019/09/10 13:07:45;;;;;;;2.3;0.9;;;;;;;;;;;;;
2019/09/10 13:10:09;;;;;;;1.2;0.6;;;;;;;;;;;;;
2019/09/10 13:12:39;;;;;;;1.6;0.7;;;;;;;;;;;;;
2019/09/10 13:15:03;;;;;;;1;0.7;;;;;;;;;;;;;
2019/09/10 13:17:27;;;;;;;0.9;0.6;;;;;;;;;;;;;
2019/09/10 13:19:52;;;;;;;1.1;0.7;;;;;;;;;;;;;
2019/09/10 13:22:23;;;;;;;2.4;0.8;;;;;;;;;;;;;
2019/09/10 13:24:48;;;;;;;2.5;0.7;;;;;;;;;;;;;
2019/09/10 13:27:14;;;;;;;0.6;0.6;;;;;;;;;;;;;
2019/09/10 13:29:38;;;;;;;1.3;0.7;;;;;;;;;;;;;
2019/09/10 13:32:03;;;;;;;1.4;0.7;;;;;;;;;;;;;
2019/09/10 13:34:28;;;;;;;1.8;1;;;;;;;;;;;;;
2019/09/10 13:36:55;;;;;;;1.5;0.8;;;;;;;;;;;;;
2019/09/10 13:39:21;;;;;;;0.8;0.7;;;;;;;;;;;;;
2019/09/10 13:41:45;;;;;;;1.6;0.7;;;;;;;;;;;;;
2019/09/10 13:44:12;;;;;;;1.9;0.8;;;;;;;;;;;;;
2019/09/10 13:46:40;;;;;;;1.8;0.7;;;;;;;;;;;;;
2019/09/10 13:49:00;;;;;;;2.2;0.8;;;;;;;;;;;;;
2019/09/10 13:51:27;;;;;;;1;0.7;;;;;;;;;;;;;
2019/09/10 13:53:55;;;;;;;1.5;0.7;;;;;;;;;;;;;
2019/09/10 13:56:20;;;;;;;1.1;0.7;;;;;;;;;;;;;
2019/09/10 13:58:43;;;;;;;1.8;0.9;;;;;;;;;;;;;
2019/09/10 14:01:12;;;;;;;3.2;0.8;;;;;;;;;;;;;
2019/09/10 14:03:37;;;;;;;1.9;0.8;;;;;;;;;;;;;
2019/09/10 14:06:00;;;;;;;3.4;1.1;;;;;;;;;;;;;
2019/09/10 14:08:25;;;;;;;4.3;1;;;;;;;;;;;;;
2019/09/10 14:10:49;;;;;;;1.5;0.9;;;;;;;;;;;;;
2019/09/10 14:13:18;;;;;;;3.2;0.9;;;;;;;;;;;;;
2019/09/10 14:15:41;;;;;;;1.3;0.8;;;;;;;;;;;;;
2019/09/10 14:18:14;;;;;;;2.2;0.8;;;;;;;;;;;;;
2019/09/10 14:20:37;;;;;;;3.1;1;;;;;;;;;;;;;
2019/09/10 14:25:53;;;;;;;4.6;0.9;;;;;;;;;;;;;
2019/09/10 14:28:19;;;;;;;1.3;0.8;;;;;;;;;;;;;
2019/09/10 14:30:45;;;;;;;2.2;0.8;;;;;;;;;;;;;
2019/09/10 14:33:09;;;;;;;2.2;0.8;;;;;;;;;;;;;
2019/09/10 14:35:38;;;;;;;4.1;0.8;;;;;;;;;;;;;
2019/09/10 14:38:01;;;;;;;8.1;0.9;;;;;;;;;;;;;
2019/09/10 14:40:25;;;;;;;3.5;0.9;;;;;;;;;;;;;
2019/09/10 14:42:50;;;;;;;2;0.8;;;;;;;;;;;;;
2019/09/10 14:45:22;;;;;;;2.6;1;;;;;;;;;;;;;
2019/09/10 14:47:42;;;;;;;2.2;0.9;;;;;;;;;;;;;
2019/09/10 14:50:05;;;;;;;4.2;0.9;;;;;;;;;;;;;
2019/09/10 14:52:31;;;;;;;2.4;0.9;;;;;;;;;;;;;
2019/09/10 14:57:24;;;;;;;1.3;0.9;;;;;;;;;;;;;
2019/09/10 15:02:19;;;;;;;1.3;1;;;;;;;;;;;;;
2019/09/10 15:04:44;;;;;;;1.7;0.8;;;;;;;;;;;;;
2019/09/10 15:07:16;;;;;;;4.1;1.2;;;;;;;;;;;;;
2019/09/10 15:09:45;;;;;;;2;1;;;;;;;;;;;;;
2019/09/10 15:12:09;;;;;;;1.4;0.9;;;;;;;;;;;;;
2019/09/10 15:14:34;;;;;;;1.4;0.8;;;;;;;;;;;;;
2019/09/10 15:16:59;;;;;;;1.6;0.8;;;;;;;;;;;;;
2019/09/10 15:19:28;;;;;;;3.4;1;;;;;;;;;;;;;
2019/09/10 15:21:53;;;;;;;2;0.9;;;;;;;;;;;;;
2019/09/10 15:24:15;;;;;;;2.6;0.9;;;;;;;;;;;;;
2019/09/10 15:26:40;;;;;;;1.9;1;;;;;;;;;;;;;
2019/09/10 15:29:11;;;;;;;1.9;0.7;;;;;;;;;;;;;
2019/09/10 15:31:33;;;;;;;2.5;0.8;;;;;;;;;;;;;
2019/09/10 15:34:02;;;;;;;2;0.8;;;;;;;;;;;;;
2019/09/10 15:36:29;;;;;;;1;0.7;;;;;;;;;;;;;
2019/09/10 15:38:53;;;;;;;2.1;0.8;;;;;;;;;;;;;
2019/09/10 15:41:23;;;;;;;1.9;1;;;;;;;;;;;;;
2019/09/10 15:43:46;;;;;;;2.6;1;;;;;;;;;;;;;
2019/09/10 15:46:10;;;;;;;1.6;0.9;;;;;;;;;;;;;
2019/09/10 15:48:37;;;;;;;1.6;0.9;;;;;;;;;;;;;
2019/09/10 15:51:05;;;;;;;2.1;0.8;;;;;;;;;;;;;
2019/09/10 15:53:27;;;;;;;1.4;0.9;;;;;;;;;;;;;
2019/09/10 15:55:52;;;;;;;2.8;0.9;;;;;;;;;;;;;
2019/09/10 15:58:23;;;;;;;2.7;1;;;;;;;;;;;;;
2019/09/10 16:00:47;;;;;;;1.3;0.9;;;;;;;;;;;;;
2019/09/10 16:03:17;;;;;;;1.7;0.9;;;;;;;;;;;;;
2019/09/10 16:05:40;;;;;;;2.5;1;;;;;;;;;;;;;
2019/09/10 16:08:07;;;;;;;2.4;1;;;;;;;;;;;;;
2019/09/10 16:10:36;;;;;;;1.6;1.2;;;;;;;;;;;;;
2019/09/10 16:12:58;;;;;;;3.7;1;;;;;;;;;;;;;
2019/09/10 16:15:23;;;;;;;3.4;0.9;;;;;;;;;;;;;
2019/09/10 16:18:17;;;;;;;2.6;1;;;;;;;;;;;;;
2019/09/10 16:20:47;;;;;;;2.1;0.9;;;;;;;;;;;;;
2019/09/10 16:23:10;;;;;;;4.1;1;;;;;;;;;;;;;
2019/09/10 16:25:37;;;;;;;2.6;1.2;;;;;;;;;;;;;
2019/09/10 16:28:07;;;;;;;3.6;1;;;;;;;;;;;;;
2019/09/10 16:30:28;;;;;;;1.5;1;;;;;;;;;;;;;
2019/09/10 16:32:53;;;;;;;2.4;1;;;;;;;;;;;;;
2019/09/10 16:35:17;;;;;;;4.1;1.1;;;;;;;;;;;;;
2019/09/10 16:37:49;;;;;;;1.8;1;;;;;;;;;;;;;
2019/09/10 16:40:10;;;;;;;2.5;1;;;;;;;;;;;;;
2019/09/10 16:42:33;;;;;;;2.2;0.9;;;;;;;;;;;;;
2019/09/10 16:44:58;;;;;;;1.8;1;;;;;;;;;;;;;
2019/09/10 16:47:25;;;;;;;1.8;1;;;;;;;;;;;;;
2019/09/10 16:49:50;;;;;;;3.6;1;;;;;;;;;;;;;
2019/09/10 16:52:16;;;;;;;3;1;;;;;;;;;;;;;
2019/09/10 16:54:40;;;;;;;5;1.1;;;;;;;;;;;;;
2019/09/10 16:57:10;;;;;;;3.7;1.2;;;;;;;;;;;;;
2019/09/10 16:59:32;;;;;;;2.9;1.2;;;;;;;;;;;;;
2019/09/10 17:02:14;;;;;;;2.3;1;;;;;;;;;;;;;
2019/09/10 17:05:19;;;;;;;2.7;1;;;;;;;;;;;;;
2019/09/10 17:10:18;;;;;;;2.9;1.1;;;;;;;;;;;;;
2019/09/10 17:12:47;;;;;;;1.8;1;;;;;;;;;;;;;
2019/09/10 17:15:09;;;;;;;2.4;1;;;;;;;;;;;;;
2019/09/10 17:17:34;;;;;;;2.9;1;;;;;;;;;;;;;
2019/09/10 17:20:16;;;;;;;2.2;1.1;;;;;;;;;;;;;
2019/09/10 17:22:45;;;;;;;2.3;1.2;;;;;;;;;;;;;
2019/09/10 17:25:09;;;;;;;2.8;1.2;;;;;;;;;;;;;
2019/09/10 17:27:33;;;;;;;2.2;1.2;;;;;;;;;;;;;
2019/09/10 17:30:18;;;;;;;3.1;1.3;;;;;;;;;;;;;
2019/09/10 17:32:43;;;;;;;3;1.5;;;;;;;;;;;;;
2019/09/10 17:35:09;;;;;;;1.6;1;;;;;;;;;;;;;
2019/09/10 17:37:35;;;;;;;2;1;;;;;;;;;;;;;
2019/09/10 17:39:59;;;;;;;3.7;1.1;;;;;;;;;;;;;
2019/09/10 17:43:15;;;;;;;2.9;1.1;;;;;;;;;;;;;
2019/09/10 17:45:25;;;;;;;2.8;1;;;;;;;;;;;;;
2019/09/10 17:48:00;;;;;;;3.2;1.1;;;;;;;;;;;;;
2019/09/10 17:50:21;;;;;;;2.3;0.9;;;;;;;;;;;;;
2019/09/10 17:52:41;;;;;;;3.3;1.3;;;;;;;;;;;;;
2019/09/10 17:55:09;;;;;;;3.2;1.2;;;;;;;;;;;;;
2019/09/10 17:57:31;;;;;;;1.8;1.1;;;;;;;;;;;;;
2019/09/10 17:59:58;;;;;;;1.6;1.2;;;;;;;;;;;;;
2019/09/10 18:02:24;;;;;;;3.6;1.5;;;;;;;;;;;;;
2019/09/10 18:04:52;;;;;;;3.3;1.5;;;;;;;;;;;;;
2019/09/10 18:07:15;;;;;;;6.8;1.5;;;;;;;;;;;;;
2019/09/10 18:09:44;;;;;;;2.9;1.3;;;;;;;;;;;;;
2019/09/10 18:12:10;;;;;;;2.5;1.1;;;;;;;;;;;;;
2019/09/10 18:14:35;;;;;;;4.5;1.2;;;;;;;;;;;;;
2019/09/10 18:17:00;;;;;;;1.5;1.2;;;;;;;;;;;;;
2019/09/10 18:19:24;;;;;;;1.9;1.2;;;;;;;;;;;;;
2019/09/10 18:22:17;;;;;;;2.1;1.3;;;;;;;;;;;;;
2019/09/10 18:24:44;;;;;;;4.7;2.4;;;;;;;;;;;;;
2019/09/10 18:27:09;;;;;;;4.4;3.2;;;;;;;;;;;;;
2019/09/10 18:29:35;;;;;;;6.5;2.4;;;;;;;;;;;;;
2019/09/10 18:32:03;;;;;;;5.9;2.7;;;;;;;;;;;;;
2019/09/10 18:34:26;;;;;;;5.2;3;;;;;;;;;;;;;
2019/09/10 18:36:51;;;;;;;4.6;2.6;;;;;;;;;;;;;
2019/09/10 18:39:17;;;;;;;5.1;2.2;;;;;;;;;;;;;
2019/09/10 18:41:44;;;;;;;5.5;2.2;;;;;;;;;;;;;
2019/09/10 18:44:09;;;;;;;3.8;2.1;;;;;;;;;;;;;
2019/09/10 18:46:34;;;;;;;4.4;1.9;;;;;;;;;;;;;
2019/09/10 18:49:03;;;;;;;5.4;2.1;;;;;;;;;;;;;
2019/09/10 18:51:31;;;;;;;3.1;1.1;;;;;;;;;;;;;
2019/09/10 18:53:51;;;;;;;2.9;1.7;;;;;;;;;;;;;
2019/09/10 18:56:16;;;;;;;4.2;2.1;;;;;;;;;;;;;
2019/09/10 18:59:15;;;;;;;4.5;2.1;;;;;;;;;;;;;
2019/09/10 19:01:40;;;;;;;3.9;1.9;;;;;;;;;;;;;
2019/09/10 19:04:05;;;;;;;4.9;1.8;;;;;;;;;;;;;
2019/09/10 19:06:34;;;;;;;4.7;2;;;;;;;;;;;;;
2019/09/10 19:08:58;;;;;;;4.3;1.8;;;;;;;;;;;;;
2019/09/10 19:11:21;;;;;;;3.6;1.7;;;;;;;;;;;;;
2019/09/10 19:13:46;;;;;;;3;1.4;;;;;;;;;;;;;
2019/09/10 19:16:13;;;;;;;1.8;1.5;;;;;;;;;;;;;
2019/09/10 19:18:40;;;;;;;4.9;2.3;;;;;;;;;;;;;
2019/09/10 19:21:01;;;;;;;6.4;1.8;;;;;;;;;;;;;
2019/09/10 19:23:32;;;;;;;3.2;1.6;;;;;;;;;;;;;
2019/09/10 19:25:55;;;;;;;4;1.6;;;;;;;;;;;;;
2019/09/10 19:28:19;;;;;;;4.8;1.5;;;;;;;;;;;;;
2019/09/10 19:30:44;;;;;;;4.9;1.5;;;;;;;;;;;;;
2019/09/10 19:33:16;;;;;;;3.4;1.5;;;;;;;;;;;;;
2019/09/10 19:35:35;;;;;;;4.5;1.8;;;;;;;;;;;;;
2019/09/10 19:37:59;;;;;;;3.6;1.5;;;;;;;;;;;;;
2019/09/10 19:40:25;;;;;;;3;1.6;;;;;;;;;;;;;
2019/09/10 19:42:49;;;;;;;2.9;1.3;;;;;;;;;;;;;
2019/09/10 19:45:15;;;;;;;3.6;1.5;;;;;;;;;;;;;
2019/09/10 19:48:15;;;;;;;5;1.7;;;;;;;;;;;;;
2019/09/10 19:50:36;;;;;;;2.7;1.4;;;;;;;;;;;;;
2019/09/10 19:53:27;;;;;;;3.2;1.5;;;;;;;;;;;;;
2019/09/10 19:55:48;;;;;;;5.2;1.5;;;;;;;;;;;;;
2019/09/10 19:58:22;;;;;;;3.7;1.7;;;;;;;;;;;;;
2019/09/10 20:00:46;;;;;;;5.2;2.4;;;;;;;;;;;;;
2019/09/10 20:03:15;;;;;;;4.5;2.3;;;;;;;;;;;;;
2019/09/10 20:05:41;;;;;;;3.5;2.5;;;;;;;;;;;;;
2019/09/10 20:08:03;;;;;;;6;2.5;;;;;;;;;;;;;
2019/09/10 20:10:28;;;;;;;5;2.3;;;;;;;;;;;;;
2019/09/10 20:12:52;;;;;;;4.9;2;;;;;;;;;;;;;
2019/09/10 20:15:21;;;;;;;3.7;1.8;;;;;;;;;;;;;
2019/09/10 20:17:46;;;;;;;3.6;1.9;;;;;;;;;;;;;
2019/09/10 20:20:17;;;;;;;5.4;2.2;;;;;;;;;;;;;
2019/09/10 20:22:41;;;;;;;4;2;;;;;;;;;;;;;
2019/09/10 20:25:04;;;;;;;4;1.8;;;;;;;;;;;;;
2019/09/10 20:27:29;;;;;;;3.6;1.4;;;;;;;;;;;;;
2019/09/10 20:30:00;;;;;;;4.8;1.7;;;;;;;;;;;;;
2019/09/10 20:33:19;;;;;;;4.5;2.3;;;;;;;;;;;;;
2019/09/10 20:35:26;;;;;;;5.5;2.3;;;;;;;;;;;;;
2019/09/10 20:37:55;;;;;;;3.6;2.4;;;;;;;;;;;;;
2019/09/10 20:40:23;;;;;;;3.9;2.2;;;;;;;;;;;;;
2019/09/10 20:43:21;;;;;;;6.9;2.2;;;;;;;;;;;;;
2019/09/10 20:45:39;;;;;;;2.4;2;;;;;;;;;;;;;
2019/09/10 20:48:02;;;;;;;3;1.7;;;;;;;;;;;;;